Terminal Aerodrome Forecast
Issued by NWS

Home | Current Version | Previous Version | Text Only | Print | Product List | Glossary On
Versions: 1 2 3 4 5 6 7 8 9 10 11 12
597
FTPA31 PHFO 141137
TAFHLI
TAF
PHLI 141137Z 1412/1512 08009KT P6SM FEW020 SCT030
     FM141900 07010KT P6SM FEW025 SCT040
     FM150600 05014KT P6SM VCSH SCT025 BKN040=

USA.gov is the U.S. government's official web portal to all federal, state and local government web resources and services.